Time;durP1;ratioP1;P1;durP2;ratioP2;P2;SDS_P1;SDS_P2;PMS_P1;PMS_P2;Temp;Humidity;BMP_temperature;BMP_pressure;BME280_temperature;BME280_humidity;BME280_pressure;Samples;Min_cycle;Max_cycle;Signal;HPM_P1;HPM_P2
2021/03/16 00:01:58;;;;;;;2.78;1.60;;;21.40;62.70;;;;;;4115351;28;20046;-61
2021/03/16 00:04:00;;;;;;;2.72;1.73;;;21.40;62.70;;;;;;4109786;28;20142;-57
2021/03/16 00:06:04;;;;;;;3.70;1.90;;;21.40;62.70;;;;;;4114938;28;20042;-58
2021/03/16 00:08:06;;;;;;;3.72;2.00;;;21.40;62.80;;;;;;4115733;28;20022;-58
2021/03/16 00:10:09;;;;;;;2.65;1.77;;;21.50;62.80;;;;;;4117191;28;20504;-59
2021/03/16 00:12:11;;;;;;;3.47;1.87;;;21.50;62.80;;;;;;4113040;28;20065;-59
2021/03/16 00:14:13;;;;;;;2.08;1.60;;;21.50;62.80;;;;;;4110905;28;20408;-53
2021/03/16 00:16:15;;;;;;;2.42;1.83;;;21.50;62.80;;;;;;4119289;28;20030;-57
2021/03/16 00:18:18;;;;;;;4.18;2.00;;;21.50;62.80;;;;;;4109371;28;20038;-56
2021/03/16 00:20:20;;;;;;;2.43;1.50;;;21.50;62.80;;;;;;4112345;28;20034;-56
2021/03/16 00:22:22;;;;;;;2.85;1.85;;;21.50;62.80;;;;;;4111521;28;20066;-56
2021/03/16 00:24:24;;;;;;;2.30;1.95;;;21.50;62.80;;;;;;4109986;28;20534;-59
2021/03/16 00:26:26;;;;;;;3.88;1.65;;;21.60;62.80;;;;;;4118196;28;20042;-58
2021/03/16 00:28:28;;;;;;;3.78;1.60;;;21.60;62.90;;;;;;4107499;28;20065;-57
2021/03/16 00:30:30;;;;;;;3.55;1.60;;;21.60;62.90;;;;;;4116340;28;20462;-57
2021/03/16 00:32:32;;;;;;;3.47;1.70;;;21.60;62.90;;;;;;4118548;28;20041;-58
2021/03/16 00:34:35;;;;;;;2.92;1.63;;;21.60;62.90;;;;;;4111921;28;20022;-61
2021/03/16 00:36:37;;;;;;;3.17;1.85;;;21.70;62.90;;;;;;4111624;28;20049;-59
2021/03/16 00:38:40;;;;;;;16.23;2.40;;;21.60;63.00;;;;;;4119409;28;20050;-58
2021/03/16 00:40:42;;;;;;;5.25;1.75;;;21.70;62.90;;;;;;4118042;28;20039;-58
2021/03/16 00:42:45;;;;;;;3.53;1.75;;;21.70;62.80;;;;;;4122440;28;20056;-59
2021/03/16 00:44:47;;;;;;;2.78;2.03;;;21.70;62.80;;;;;;4099470;28;20799;-61
2021/03/16 00:46:49;;;;;;;2.17;1.55;;;21.80;62.90;;;;;;4111662;28;20505;-69
2021/03/16 00:48:51;;;;;;;5.13;1.80;;;21.80;62.70;;;;;;4103156;28;20039;-66
2021/03/16 00:50:54;;;;;;;4.65;1.63;;;21.80;62.50;;;;;;4102601;28;20085;-66
2021/03/16 00:52:56;;;;;;;2.78;1.80;;;21.80;62.40;;;;;;4108698;28;20026;-65
2021/03/16 00:54:59;;;;;;;7.32;1.90;;;21.80;62.30;;;;;;4107568;28;20042;-66
2021/03/16 00:57:01;;;;;;;2.72;1.45;;;21.80;62.20;;;;;;4107582;28;20065;-60
2021/03/16 00:59:03;;;;;;;4.57;1.50;;;21.80;62.30;;;;;;4109464;28;20479;-62
2021/03/16 01:01:07;;;;;;;3.05;1.35;;;21.80;62.80;;;;;;4106002;28;20106;-60
2021/03/16 01:03:09;;;;;;;4.00;1.50;;;21.90;62.80;;;;;;4104865;28;20475;-60
2021/03/16 01:05:11;;;;;;;3.30;1.77;;;21.90;62.80;;;;;;4110257;28;20046;-61
2021/03/16 01:07:14;;;;;;;3.35;1.48;;;21.90;62.80;;;;;;4115203;28;20037;-60
2021/03/16 01:09:16;;;;;;;3.58;1.40;;;22.00;62.80;;;;;;4103698;28;20412;-60
2021/03/16 01:11:18;;;;;;;4.63;1.42;;;22.00;62.80;;;;;;4106035;28;20048;-61
2021/03/16 01:13:21;;;;;;;3.13;1.70;;;22.00;62.70;;;;;;4114533;28;20077;-60
2021/03/16 01:15:23;;;;;;;3.25;1.48;;;22.10;62.60;;;;;;4112848;28;20483;-61
2021/03/16 01:17:25;;;;;;;3.08;1.25;;;22.10;62.60;;;;;;4113293;28;20276;-59
2021/03/16 01:19:28;;;;;;;3.10;1.20;;;22.10;62.50;;;;;;4114578;28;20431;-61
2021/03/16 01:21:30;;;;;;;2.05;1.55;;;22.20;62.50;;;;;;4108631;28;20069;-61
2021/03/16 01:23:32;;;;;;;4.15;1.40;;;22.20;62.50;;;;;;4105197;28;20045;-59
2021/03/16 01:25:34;;;;;;;1.73;1.17;;;22.20;62.50;;;;;;4114163;28;20041;-58
2021/03/16 01:27:36;;;;;;;4.40;1.42;;;22.20;62.50;;;;;;4117696;28;20050;-60
2021/03/16 01:29:38;;;;;;;2.65;1.50;;;22.30;62.60;;;;;;4116614;28;20058;-59
2021/03/16 01:31:40;;;;;;;3.65;1.63;;;22.30;62.50;;;;;;4118042;28;20066;-59
2021/03/16 01:33:42;;;;;;;5.63;1.67;;;22.30;62.50;;;;;;4111752;28;20035;-60
2021/03/16 01:35:44;;;;;;;4.07;1.23;;;22.30;62.40;;;;;;4111590;28;20030;-60
2021/03/16 01:37:49;;;;;;;3.20;1.52;;;22.40;62.40;;;;;;4123571;28;20045;-64
2021/03/16 01:39:51;;;;;;;3.22;1.13;;;22.40;62.40;;;;;;4119916;28;20046;-59
2021/03/16 01:41:53;;;;;;;1.77;1.15;;;22.40;62.50;;;;;;4118551;28;20491;-62
2021/03/16 01:43:55;;;;;;;1.73;1.30;;;22.40;62.50;;;;;;4116405;28;20113;-59
2021/03/16 01:45:59;;;;;;;2.80;1.40;;;22.40;62.50;;;;;;4112033;28;20534;-58
2021/03/16 01:48:01;;;;;;;2.05;1.17;;;22.40;62.40;;;;;;4116522;28;20081;-59
2021/03/16 01:50:10;;;;;;;2.42;1.52;;;22.40;62.50;;;;;;4115695;28;20432;-60
2021/03/16 01:52:12;;;;;;;3.47;1.20;;;22.40;62.50;;;;;;4119301;28;20353;-61
2021/03/16 01:54:14;;;;;;;3.00;0.95;;;22.40;62.60;;;;;;4116535;28;20065;-59
2021/03/16 01:56:17;;;;;;;3.85;1.45;;;22.50;62.60;;;;;;4107504;28;20212;-59
2021/03/16 01:58:20;;;;;;;2.35;1.30;;;22.50;62.60;;;;;;4110121;28;21315;-60
2021/03/16 02:00:24;;;;;;;2.13;1.13;;;22.50;62.60;;;;;;4111645;28;20115;-61
2021/03/16 02:02:26;;;;;;;2.33;1.25;;;22.50;62.60;;;;;;4105041;28;20213;-62
2021/03/16 02:04:28;;;;;;;2.75;1.08;;;22.50;62.70;;;;;;4101137;28;20469;-62
2021/03/16 02:06:41;;;;;;;1.38;1.02;;;22.50;62.70;;;;;;4110196;28;20046;-60
2021/03/16 02:08:57;;;;;;;2.45;1.23;;;22.50;62.70;;;;;;4108488;28;20069;-61
2021/03/16 02:11:07;;;;;;;2.17;1.13;;;22.50;62.60;;;;;;4113241;28;20448;-62
2021/03/16 02:13:28;;;;;;;1.85;1.10;;;22.50;62.60;;;;;;4110623;28;20045;-60
2021/03/16 02:15:40;;;;;;;1.67;1.20;;;22.60;62.80;;;;;;4108985;28;20051;-61
2021/03/16 02:17:44;;;;;;;4.32;1.50;;;22.60;62.50;;;;;;4115424;28;20073;-62
2021/03/16 02:20:16;;;;;;;4.00;1.40;;;22.60;62.50;;;;;;4124919;28;20032;-62
2021/03/16 02:22:19;;;;;;;4.13;1.58;;;22.60;62.10;;;;;;4116245;28;20124;-60
2021/03/16 02:25:01;;;;;;;5.65;1.40;;;22.60;62.00;;;;;;4116528;28;20062;-61
2021/03/16 02:27:24;;;;;;;7.22;1.67;;;22.50;62.00;;;;;;4106237;28;20054;-63
2021/03/16 02:29:29;;;;;;;3.72;1.80;;;22.50;62.00;;;;;;4112529;28;20042;-49
2021/03/16 02:31:33;;;;;;;25.27;2.47;;;22.50;62.80;;;;;;4119936;28;20098;-55
2021/03/16 02:33:38;;;;;;;3.95;1.58;;;22.50;63.00;;;;;;4128395;28;20068;-50
2021/03/16 02:35:42;;;;;;;4.78;1.70;;;22.50;62.80;;;;;;4123679;28;20066;-55
2021/03/16 02:37:45;;;;;;;5.47;2.05;;;22.50;62.80;;;;;;4114855;28;20042;-53
2021/03/16 02:39:49;;;;;;;5.60;1.75;;;22.40;62.70;;;;;;4122002;28;20037;-53
2021/03/16 02:41:52;;;;;;;6.15;1.90;;;22.40;62.50;;;;;;4107877;28;20443;-58
2021/03/16 02:43:55;;;;;;;5.85;2.30;;;22.40;62.70;;;;;;4111804;28;20550;-53
2021/03/16 02:45:57;;;;;;;8.10;2.10;;;22.40;62.80;;;;;;4108919;28;20120;-56
2021/03/16 02:48:01;;;;;;;2.88;1.55;;;22.40;62.90;;;;;;4104225;28;20050;-53
2021/03/16 02:50:04;;;;;;;7.05;1.98;;;22.30;63.00;;;;;;4101251;28;20037;-55
2021/03/16 02:52:07;;;;;;;6.38;1.90;;;22.30;63.00;;;;;;4106609;28;20060;-54
2021/03/16 02:54:10;;;;;;;4.77;1.90;;;22.30;63.20;;;;;;4109003;28;20478;-51
2021/03/16 02:56:12;;;;;;;;;;;22.30;63.20;;;;;;4106486;28;20031;-54
2021/03/16 02:58:16;;;;;;;4.07;1.80;;;22.30;63.20;;;;;;4124387;28;20429;-52
2021/03/16 03:00:20;;;;;;;3.47;1.77;;;22.30;63.30;;;;;;4100176;28;20041;-53
2021/03/16 03:02:21;;;;;;;;;;;22.30;63.20;;;;;;4106276;28;20057;-52
2021/03/16 03:04:26;;;;;;;4.15;1.73;;;22.30;63.20;;;;;;4106619;28;19960;-56
2021/03/16 03:06:30;;;;;;;5.93;2.10;;;22.30;63.30;;;;;;4103450;28;20133;-51
2021/03/16 03:08:34;;;;;;;4.47;2.00;;;22.30;63.30;;;;;;4105647;28;20117;-54
2021/03/16 03:10:37;;;;;;;3.38;1.73;;;22.30;63.40;;;;;;4107008;28;20462;-53
2021/03/16 03:12:39;;;;;;;5.10;2.10;;;22.30;63.40;;;;;;4104831;28;20038;-50
2021/03/16 03:14:41;;;;;;;5.00;2.00;;;22.30;63.40;;;;;;4112960;28;20188;-55
2021/03/16 03:16:43;;;;;;;4.13;1.85;;;22.30;63.40;;;;;;4106426;28;20112;-49
2021/03/16 03:18:45;;;;;;;4.43;1.88;;;22.40;63.40;;;;;;4109704;28;20122;-55
2021/03/16 03:20:47;;;;;;;4.53;1.58;;;22.40;63.50;;;;;;4102888;28;20070;-60
2021/03/16 03:22:59;;;;;;;3.72;2.15;;;22.40;63.40;;;;;;4100942;28;20130;-59
2021/03/16 03:25:30;;;;;;;3.42;1.73;;;22.40;64.30;;;;;;4105593;28;20038;-60
2021/03/16 03:27:36;;;;;;;3.63;1.67;;;22.40;64.50;;;;;;4102431;28;20137;-60
2021/03/16 03:29:39;;;;;;;2.55;1.55;;;22.40;64.70;;;;;;4105224;28;20472;-62
2021/03/16 03:31:46;;;;;;;4.97;1.80;;;22.40;64.70;;;;;;4106117;28;20042;-60
2021/03/16 03:33:50;;;;;;;4.55;1.95;;;22.50;64.80;;;;;;4097224;28;20292;-61
2021/03/16 03:35:52;;;;;;;4.88;1.73;;;22.50;65.00;;;;;;4104002;28;20325;-60
2021/03/16 03:37:55;;;;;;;4.28;1.52;;;22.50;65.00;;;;;;4099612;28;20050;-57
2021/03/16 03:39:57;;;;;;;;;;;22.50;65.00;;;;;;4125094;28;20132;-57
2021/03/16 03:42:00;;;;;;;3.95;1.90;;;22.50;64.80;;;;;;4112297;28;20528;-57
2021/03/16 03:44:07;;;;;;;9.32;2.20;;;22.60;65.00;;;;;;4128471;28;20026;-61
2021/03/16 03:46:11;;;;;;;4.60;1.75;;;22.60;65.50;;;;;;4111055;28;20070;-60
2021/03/16 03:48:15;;;;;;;5.20;1.80;;;22.60;65.30;;;;;;4109107;28;20030;-57
2021/03/16 03:50:18;;;;;;;3.70;1.50;;;22.60;65.50;;;;;;4105218;28;20034;-61
2021/03/16 03:52:22;;;;;;;4.20;1.50;;;22.60;65.50;;;;;;4105306;28;20470;-58
2021/03/16 03:54:25;;;;;;;7.57;1.90;;;22.70;65.60;;;;;;4105736;28;20406;-58
2021/03/16 03:56:29;;;;;;;4.10;1.85;;;22.70;65.60;;;;;;4107182;28;20388;-60
2021/03/16 03:58:33;;;;;;;3.53;1.33;;;22.70;65.50;;;;;;4112646;28;20126;-58
2021/03/16 04:00:35;;;;;;;;;;;22.70;65.50;;;;;;4117682;28;20030;-58
2021/03/16 04:02:37;;;;;;;4.97;1.92;;;22.80;65.50;;;;;;4117232;28;19925;-53
2021/03/16 04:04:40;;;;;;;3.53;1.80;;;22.80;65.60;;;;;;4116424;28;20034;-62
2021/03/16 04:06:44;;;;;;;3.80;1.90;;;22.80;65.50;;;;;;4114791;28;20046;-63
2021/03/16 04:08:46;;;;;;;5.78;2.00;;;22.80;65.50;;;;;;4119733;28;20038;-59
2021/03/16 04:10:48;;;;;;;5.93;2.23;;;22.80;65.40;;;;;;4116253;28;20027;-58
2021/03/16 04:12:52;;;;;;;4.18;1.63;;;22.80;65.20;;;;;;4116828;28;20284;-60
2021/03/16 04:14:54;;;;;;;3.67;1.60;;;22.80;65.10;;;;;;4114380;28;20048;-61
2021/03/16 04:16:57;;;;;;;3.13;1.67;;;22.90;65.20;;;;;;4113157;28;20041;-62
2021/03/16 04:19:00;;;;;;;3.28;1.80;;;22.90;65.10;;;;;;4112548;28;20043;-62
2021/03/16 04:21:02;;;;;;;3.30;1.60;;;22.90;65.20;;;;;;4118489;28;20044;-64
2021/03/16 04:23:04;;;;;;;3.35;1.63;;;22.90;65.20;;;;;;4117466;28;20057;-61
2021/03/16 04:25:07;;;;;;;6.20;1.70;;;22.90;65.10;;;;;;4110818;28;21003;-64
2021/03/16 04:27:09;;;;;;;4.45;1.52;;;22.90;65.10;;;;;;4111497;28;20039;-70
2021/03/16 04:29:12;;;;;;;3.97;1.95;;;22.90;65.10;;;;;;4106017;28;20113;-60
2021/03/16 04:31:14;;;;;;;2.75;1.45;;;22.90;65.50;;;;;;4111002;28;20027;-54
2021/03/16 04:33:16;;;;;;;3.58;1.60;;;23.00;65.60;;;;;;4111424;28;20038;-55
2021/03/16 04:35:18;;;;;;;5.70;1.65;;;23.00;65.70;;;;;;4102138;28;20031;-58
2021/03/16 04:37:20;;;;;;;3.83;1.92;;;23.00;65.70;;;;;;4106265;28;20874;-56
2021/03/16 04:39:23;;;;;;;3.03;1.60;;;23.10;65.70;;;;;;4108428;28;20038;-58
2021/03/16 04:41:25;;;;;;;3.95;1.95;;;23.10;65.60;;;;;;4109519;28;20592;-53
2021/03/16 04:43:27;;;;;;;3.50;1.30;;;23.10;65.60;;;;;;4106902;28;20481;-57
2021/03/16 04:45:29;;;;;;;5.18;2.15;;;23.10;65.50;;;;;;4112934;28;20480;-55
2021/03/16 04:47:31;;;;;;;2.72;1.50;;;23.20;65.50;;;;;;4114273;28;20042;-51
2021/03/16 04:49:33;;;;;;;4.78;1.70;;;23.20;65.40;;;;;;4111891;28;20097;-57
2021/03/16 04:51:35;;;;;;;5.38;1.80;;;23.20;65.30;;;;;;4119372;28;20069;-56
2021/03/16 04:53:37;;;;;;;2.55;1.60;;;23.30;65.30;;;;;;4105944;28;20099;-55
2021/03/16 04:55:39;;;;;;;3.95;1.40;;;23.30;65.30;;;;;;4111109;28;20084;-54
2021/03/16 04:57:41;;;;;;;4.65;1.30;;;23.30;65.20;;;;;;4113023;28;20042;-52
2021/03/16 04:59:43;;;;;;;3.80;1.83;;;23.40;65.20;;;;;;4113030;28;20519;-55
2021/03/16 05:01:46;;;;;;;10.15;1.63;;;23.40;65.20;;;;;;4109696;28;20481;-53
2021/03/16 05:03:48;;;;;;;4.07;1.50;;;23.40;65.20;;;;;;4117482;28;20053;-56
2021/03/16 05:05:50;;;;;;;5.90;1.55;;;23.40;65.10;;;;;;4114483;28;20034;-52
2021/03/16 05:07:52;;;;;;;2.15;1.20;;;23.40;64.90;;;;;;4125000;28;20545;-51
2021/03/16 05:09:54;;;;;;;2.30;1.17;;;23.40;64.70;;;;;;4116539;28;20046;-54
2021/03/16 05:11:56;;;;;;;1.88;0.90;;;23.50;64.80;;;;;;4114434;28;20040;-56
2021/03/16 05:13:58;;;;;;;2.00;1.00;;;23.40;64.70;;;;;;4107529;28;20528;-52
2021/03/16 05:16:01;;;;;;;3.25;1.30;;;23.50;64.70;;;;;;4101106;28;20343;-56
2021/03/16 05:18:04;;;;;;;3.95;1.05;;;23.50;64.70;;;;;;4111087;28;20038;-56
2021/03/16 05:20:06;;;;;;;1.55;0.90;;;23.40;64.60;;;;;;4116894;28;20144;-58
2021/03/16 05:22:09;;;;;;;1.98;1.30;;;23.50;64.80;;;;;;4114705;28;20038;-51
2021/03/16 05:24:11;;;;;;;2.58;1.00;;;23.40;64.80;;;;;;4116864;28;20039;-56
2021/03/16 05:26:13;;;;;;;2.13;1.10;;;23.50;64.80;;;;;;4114183;28;20117;-57
2021/03/16 05:28:16;;;;;;;4.43;0.98;;;23.50;64.90;;;;;;4121098;28;20428;-55
2021/03/16 05:30:18;;;;;;;2.63;1.17;;;23.50;65.00;;;;;;4113903;28;20137;-57
2021/03/16 05:32:20;;;;;;;4.07;1.08;;;23.50;65.10;;;;;;4118165;28;20057;-59
2021/03/16 05:34:22;;;;;;;2.38;1.00;;;23.50;65.20;;;;;;4116692;28;20134;-56
2021/03/16 05:36:25;;;;;;;1.40;0.90;;;23.50;65.20;;;;;;4115826;28;20061;-62
2021/03/16 05:38:27;;;;;;;2.25;1.00;;;23.50;65.20;;;;;;4114110;28;20043;-58
2021/03/16 05:40:33;;;;;;;2.53;1.30;;;23.50;65.30;;;;;;4104574;28;20045;-53
2021/03/16 05:42:35;;;;;;;1.88;1.15;;;23.50;65.40;;;;;;4112767;28;20108;-55
2021/03/16 05:44:38;;;;;;;1.88;0.80;;;23.50;65.40;;;;;;4113668;28;20141;-50
2021/03/16 05:46:42;;;;;;;2.75;1.20;;;23.50;65.30;;;;;;4110361;28;20027;-53
2021/03/16 05:48:49;;;;;;;;;;;23.50;65.30;;;;;;4117303;28;20124;-56
2021/03/16 05:50:54;;;;;;;2.92;1.40;;;23.60;65.30;;;;;;4109321;28;19951;-57
2021/03/16 05:52:57;;;;;;;2.08;1.00;;;23.60;65.20;;;;;;4114637;28;20027;-53
2021/03/16 05:54:59;;;;;;;1.45;1.10;;;23.60;65.30;;;;;;4107045;28;20523;-56
2021/03/16 05:57:01;;;;;;;2.55;1.30;;;23.60;65.30;;;;;;4110398;28;20100;-53
2021/03/16 05:59:04;;;;;;;1.77;1.30;;;23.60;65.40;;;;;;4106058;28;20395;-56
2021/03/16 06:01:06;;;;;;;2.58;1.38;;;23.60;65.40;;;;;;4116017;28;20370;-57
2021/03/16 06:03:08;;;;;;;2.42;1.20;;;23.60;65.40;;;;;;4108550;28;20057;-55
2021/03/16 06:05:11;;;;;;;2.72;1.23;;;23.60;65.50;;;;;;4106093;28;20528;-55
2021/03/16 06:07:13;;;;;;;;;;;23.60;65.50;;;;;;4116181;28;20019;-51
2021/03/16 06:09:16;;;;;;;2.92;1.20;;;23.60;65.50;;;;;;4115023;28;19926;-52
2021/03/16 06:11:18;;;;;;;1.50;1.20;;;23.70;65.60;;;;;;4114648;28;20041;-56
2021/03/16 06:13:20;;;;;;;7.82;1.50;;;23.60;65.60;;;;;;4118900;28;20026;-56
2021/03/16 06:15:23;;;;;;;2.88;1.42;;;23.70;65.50;;;;;;4114579;28;20134;-53
2021/03/16 06:17:25;;;;;;;2.65;1.45;;;23.70;65.70;;;;;;4107498;28;20054;-57
2021/03/16 06:19:29;;;;;;;2.45;1.30;;;23.70;65.80;;;;;;4099792;28;20070;-56
2021/03/16 06:21:31;;;;;;;2.60;1.00;;;23.70;65.70;;;;;;4106993;28;20133;-55
2021/03/16 06:23:36;;;;;;;3.05;1.05;;;23.70;65.70;;;;;;4119305;28;20057;-53
2021/03/16 06:25:43;;;;;;;4.80;1.35;;;23.70;65.70;;;;;;4114612;28;20038;-56
2021/03/16 06:27:46;;;;;;;2.55;1.20;;;23.70;65.70;;;;;;4114781;28;20139;-58
2021/03/16 06:29:49;;;;;;;2.70;1.10;;;23.70;65.80;;;;;;4116116;28;20039;-51
2021/03/16 06:31:52;;;;;;;1.45;1.10;;;23.70;65.80;;;;;;4120942;28;20437;-59
2021/03/16 06:33:54;;;;;;;2.97;1.60;;;23.70;65.80;;;;;;4111539;28;20073;-58
2021/03/16 06:36:03;;;;;;;1.83;1.10;;;23.70;65.90;;;;;;4111262;28;20038;-60
2021/03/16 06:38:10;;;;;;;3.30;1.20;;;23.70;66.00;;;;;;4115060;28;20026;-57
2021/03/16 06:40:14;;;;;;;5.50;1.42;;;23.70;66.00;;;;;;4120031;28;20500;-58
2021/03/16 06:42:27;;;;;;;1.38;1.15;;;23.80;66.10;;;;;;4115316;28;20053;-57
2021/03/16 06:44:29;;;;;;;2.38;1.25;;;23.80;66.20;;;;;;4116015;28;20101;-54
2021/03/16 06:46:36;;;;;;;1.80;1.25;;;23.80;66.30;;;;;;4123604;28;20507;-56
2021/03/16 06:48:38;;;;;;;4.93;1.50;;;23.80;66.40;;;;;;4111148;28;20031;-60
2021/03/16 06:50:41;;;;;;;2.30;1.48;;;23.80;66.50;;;;;;4114850;28;20506;-58
2021/03/16 06:52:52;;;;;;;4.07;1.40;;;23.80;66.50;;;;;;4115857;28;20031;-58
2021/03/16 06:54:54;;;;;;;2.67;1.33;;;23.80;66.50;;;;;;4114897;28;20058;-56
2021/03/16 06:56:59;;;;;;;2.47;1.10;;;23.80;66.60;;;;;;4121108;28;20118;-57
2021/03/16 06:59:02;;;;;;;4.55;1.50;;;23.80;66.60;;;;;;4122220;28;20045;-48
2021/03/16 07:01:18;;;;;;;3.53;1.40;;;23.90;66.70;;;;;;4121069;28;20045;-59
2021/03/16 07:03:20;;;;;;;2.20;1.45;;;23.90;66.70;;;;;;4119989;28;20062;-55
2021/03/16 07:05:29;;;;;;;4.53;1.45;;;23.90;66.70;;;;;;4119339;28;20027;-54
2021/03/16 07:07:33;;;;;;;2.58;1.40;;;23.90;66.80;;;;;;4115075;28;20035;-57
2021/03/16 07:09:36;;;;;;;1.77;1.08;;;23.90;66.80;;;;;;4109840;28;20039;-57
2021/03/16 07:11:43;;;;;;;3.45;1.40;;;23.90;66.80;;;;;;4110712;28;20042;-57
2021/03/16 07:13:45;;;;;;;3.55;1.42;;;23.90;66.70;;;;;;4102211;28;20536;-57
2021/03/16 07:15:48;;;;;;;2.00;1.30;;;23.90;66.70;;;;;;4112366;28;20042;-59
2021/03/16 07:17:50;;;;;;;2.53;1.17;;;23.90;66.60;;;;;;4110919;28;20379;-62
2021/03/16 07:20:02;;;;;;;5.47;1.60;;;23.90;66.60;;;;;;4112111;28;20031;-56
2021/03/16 07:22:05;;;;;;;4.78;1.42;;;23.90;66.60;;;;;;4107814;28;20062;-53
2021/03/16 07:24:11;;;;;;;4.15;1.65;;;23.90;66.80;;;;;;4111108;28;20122;-58
2021/03/16 07:26:14;;;;;;;2.70;1.38;;;23.90;66.80;;;;;;4110450;28;20480;-57
2021/03/16 07:28:16;;;;;;;3.28;1.30;;;23.90;66.90;;;;;;4109651;28;20027;-56
2021/03/16 07:30:19;;;;;;;4.78;1.25;;;23.90;66.70;;;;;;4100633;28;20074;-61
2021/03/16 07:32:21;;;;;;;0.80;0.80;;;23.90;66.80;;;;;;4114766;28;20026;-59
2021/03/16 07:34:25;;;;;;;2.97;1.30;;;23.90;66.80;;;;;;4111977;28;20038;-60
2021/03/16 07:36:27;;;;;;;6.75;1.67;;;23.90;66.90;;;;;;4105001;28;20381;-66
2021/03/16 07:38:30;;;;;;;4.38;1.65;;;23.90;67.00;;;;;;4106239;28;20044;-67
2021/03/16 07:40:33;;;;;;;3.63;1.67;;;23.90;66.70;;;;;;4110655;28;20026;-65
2021/03/16 07:42:37;;;;;;;4.30;1.42;;;23.90;66.70;;;;;;4106445;28;20140;-69
2021/03/16 07:44:43;;;;;;;2.88;1.30;;;23.90;66.60;;;;;;4112086;28;20049;-58
2021/03/16 07:46:59;;;;;;;4.80;1.60;;;23.90;66.80;;;;;;4108699;28;20100;-55
2021/03/16 07:49:01;;;;;;;3.38;1.27;;;23.90;66.90;;;;;;4106356;28;20045;-58
2021/03/16 07:51:20;;;;;;;3.15;1.20;;;23.90;67.00;;;;;;4107301;28;20228;-60
2021/03/16 07:53:29;;;;;;;3.30;1.50;;;23.90;67.00;;;;;;4118378;28;20034;-60
2021/03/16 07:55:32;;;;;;;3.38;1.40;;;23.90;66.90;;;;;;4109595;28;20034;-58
2021/03/16 07:57:35;;;;;;;3.58;1.42;;;23.90;66.90;;;;;;4112854;28;20360;-59
2021/03/16 07:59:39;;;;;;;2.05;1.00;;;23.90;66.80;;;;;;4110283;28;20635;-58
2021/03/16 08:01:50;;;;;;;4.32;1.50;;;23.90;66.80;;;;;;4117949;28;20429;-55
2021/03/16 08:04:07;;;;;;;4.45;1.83;;;23.90;66.80;;;;;;4107124;28;20543;-59
2021/03/16 08:06:21;;;;;;;3.42;1.23;;;23.90;66.90;;;;;;4107517;28;20395;-58
2021/03/16 08:08:23;;;;;;;4.57;1.65;;;23.90;66.80;;;;;;4109847;28;20038;-57
2021/03/16 08:10:31;;;;;;;3.35;1.60;;;24.00;67.00;;;;;;4111347;28;20112;-58
2021/03/16 08:12:33;;;;;;;4.53;1.52;;;24.00;67.00;;;;;;4110775;28;20086;-59
2021/03/16 08:14:35;;;;;;;2.65;1.50;;;24.00;67.00;;;;;;4117385;28;20565;-59
2021/03/16 08:16:42;;;;;;;4.88;1.48;;;24.00;67.00;;;;;;4108750;28;20096;-58
2021/03/16 08:18:44;;;;;;;5.07;1.42;;;24.00;67.00;;;;;;4108294;28;20546;-59
2021/03/16 08:20:47;;;;;;;6.07;2.00;;;24.00;66.90;;;;;;4106815;28;20124;-64
2021/03/16 08:22:49;;;;;;;3.38;1.58;;;24.00;66.80;;;;;;4111777;28;20122;-63
2021/03/16 08:25:00;;;;;;;3.00;1.50;;;24.00;66.60;;;;;;4108576;28;20474;-61
2021/03/16 08:27:06;;;;;;;2.72;1.40;;;24.00;67.20;;;;;;4108168;28;20034;-61
2021/03/16 08:29:08;;;;;;;3.45;1.55;;;24.00;66.50;;;;;;4108925;28;20682;-60
2021/03/16 08:31:10;;;;;;;3.92;1.60;;;24.00;66.60;;;;;;4106450;28;20041;-62
2021/03/16 08:33:14;;;;;;;6.75;1.65;;;24.00;66.60;;;;;;4106028;28;20079;-60
2021/03/16 08:35:18;;;;;;;4.38;1.30;;;23.90;66.50;;;;;;4103656;28;20101;-60
2021/03/16 08:37:32;;;;;;;4.07;1.58;;;23.90;66.40;;;;;;4103048;28;20584;-61
2021/03/16 08:39:34;;;;;;;3.58;1.42;;;23.90;66.70;;;;;;4108409;28;20048;-60
2021/03/16 08:41:36;;;;;;;2.88;1.52;;;23.90;66.60;;;;;;4107891;28;20049;-63
2021/03/16 08:43:41;;;;;;;3.60;1.27;;;23.90;66.70;;;;;;4109278;28;20434;-59
2021/03/16 08:45:45;;;;;;;4.80;1.50;;;23.90;66.70;;;;;;4108310;28;20065;-66
2021/03/16 08:47:47;;;;;;;4.05;1.60;;;23.90;66.90;;;;;;4104533;28;20125;-65
2021/03/16 08:49:52;;;;;;;6.80;1.20;;;23.90;66.80;;;;;;4105747;28;20061;-61
2021/03/16 08:51:54;;;;;;;4.22;1.38;;;23.90;66.80;;;;;;4102704;28;20039;-61
2021/03/16 08:53:56;;;;;;;4.70;1.17;;;23.90;66.80;;;;;;4101427;28;20042;-59
2021/03/16 08:55:58;;;;;;;4.53;1.13;;;23.90;66.70;;;;;;4112185;28;20539;-60
2021/03/16 08:58:09;;;;;;;4.50;1.65;;;23.90;66.70;;;;;;4105802;28;20054;-57
2021/03/16 09:00:12;;;;;;;2.78;1.20;;;23.90;66.80;;;;;;4106078;28;20031;-62
2021/03/16 09:02:27;;;;;;;3.95;1.52;;;23.90;66.70;;;;;;4112968;28;20042;-61
2021/03/16 09:04:29;;;;;;;3.92;1.20;;;23.90;66.70;;;;;;4108959;28;20042;-58
2021/03/16 09:06:31;;;;;;;1.98;1.33;;;23.90;66.60;;;;;;4103859;28;20060;-60
2021/03/16 09:08:33;;;;;;;7.43;1.60;;;23.90;66.60;;;;;;4110985;28;20718;-60
2021/03/16 09:10:36;;;;;;;4.22;1.63;;;23.90;66.60;;;;;;4110676;28;20068;-62
2021/03/16 09:12:43;;;;;;;3.92;1.63;;;23.90;66.60;;;;;;4104128;28;20031;-61
2021/03/16 09:14:45;;;;;;;3.45;1.65;;;23.90;66.60;;;;;;4103812;28;20042;-61
2021/03/16 09:16:50;;;;;;;3.00;1.70;;;23.90;66.60;;;;;;4112702;28;20030;-68
2021/03/16 09:18:52;;;;;;;3.42;1.10;;;23.90;66.60;;;;;;4101006;28;20038;-68
2021/03/16 09:20:54;;;;;;;4.22;1.58;;;23.90;66.70;;;;;;4110227;28;20388;-71
2021/03/16 09:23:03;;;;;;;2.53;1.20;;;23.90;66.70;;;;;;4103432;28;20034;-62
2021/03/16 09:25:08;;;;;;;5.35;1.50;;;23.90;67.10;;;;;;4108684;28;20468;-61
2021/03/16 09:27:11;;;;;;;3.08;1.20;;;23.90;66.40;;;;;;4107425;28;20121;-64
2021/03/16 09:29:13;;;;;;;3.72;1.30;;;23.90;66.30;;;;;;4110917;28;20130;-62
2021/03/16 09:31:16;;;;;;;3.97;1.70;;;23.90;66.10;;;;;;4110101;28;20018;-63
2021/03/16 09:33:20;;;;;;;3.58;1.40;;;23.80;65.80;;;;;;4108300;28;20043;-63
2021/03/16 09:35:23;;;;;;;6.88;1.88;;;23.80;66.30;;;;;;4104336;28;20118;-61
2021/03/16 09:37:25;;;;;;;5.97;1.80;;;23.80;65.90;;;;;;4110250;28;20038;-62
2021/03/16 09:39:28;;;;;;;4.05;1.35;;;23.80;66.10;;;;;;4102274;28;20058;-60
2021/03/16 09:41:30;;;;;;;3.13;1.48;;;23.70;66.00;;;;;;4104831;28;20043;-67
2021/03/16 09:43:38;;;;;;;4.35;1.80;;;23.70;66.20;;;;;;4113469;28;20440;-64
2021/03/16 09:45:40;;;;;;;4.28;1.80;;;23.70;66.10;;;;;;4107155;28;20145;-62
2021/03/16 09:47:42;;;;;;;5.22;1.50;;;23.70;66.00;;;;;;4113930;28;20122;-63
2021/03/16 09:49:44;;;;;;;3.20;1.35;;;23.70;66.10;;;;;;4114131;28;20026;-63
2021/03/16 09:51:47;;;;;;;4.82;1.85;;;23.70;65.90;;;;;;4120957;28;20048;-63
2021/03/16 09:53:54;;;;;;;4.75;1.60;;;23.70;66.10;;;;;;4114092;28;20038;-65
2021/03/16 09:56:01;;;;;;;8.85;2.15;;;23.60;66.20;;;;;;4108561;28;20030;-62
2021/03/16 09:58:04;;;;;;;4.50;1.70;;;23.60;66.40;;;;;;4115974;28;20043;-63
2021/03/16 10:00:10;;;;;;;4.10;1.52;;;23.60;66.50;;;;;;4116400;28;20039;-62
2021/03/16 10:02:13;;;;;;;5.25;2.13;;;23.60;66.40;;;;;;4112595;28;20054;-61
2021/03/16 10:04:15;;;;;;;;;;;23.60;66.70;;;;;;4115007;28;20034;-61
2021/03/16 10:06:17;;;;;;;5.97;2.08;;;23.60;66.20;;;;;;4121345;28;19917;-62
2021/03/16 10:08:27;;;;;;;5.78;1.65;;;23.60;66.60;;;;;;4111051;28;20094;-63
2021/03/16 10:10:33;;;;;;;3.85;1.40;;;23.60;66.50;;;;;;4115768;28;20042;-62
2021/03/16 10:12:36;;;;;;;4.45;2.10;;;23.50;66.40;;;;;;4101348;28;20039;-63
2021/03/16 10:14:39;;;;;;;4.75;1.70;;;23.50;66.60;;;;;;4105880;28;20083;-56
2021/03/16 10:16:41;;;;;;;4.53;1.90;;;23.50;66.60;;;;;;4116732;28;20103;-64
2021/03/16 10:18:46;;;;;;;23.02;2.22;;;23.50;66.80;;;;;;4117154;28;20181;-53
2021/03/16 10:20:51;;;;;;;12.73;2.58;;;23.50;67.00;;;;;;4112006;28;20442;-56
2021/03/16 10:22:57;;;;;;;9.32;2.53;;;23.50;67.20;;;;;;4113424;28;20038;-58
2021/03/16 10:25:02;;;;;;;10.93;2.17;;;23.50;67.30;;;;;;4116194;28;20306;-51
2021/03/16 10:27:04;;;;;;;6.80;2.13;;;23.50;67.30;;;;;;4118067;28;20039;-46
2021/03/16 10:29:13;;;;;;;10.73;2.35;;;23.50;67.50;;;;;;4111935;28;20054;-48
2021/03/16 10:31:20;;;;;;;9.38;1.80;;;23.50;67.60;;;;;;4104264;28;20185;-53
2021/03/16 10:33:23;;;;;;;8.48;1.67;;;23.50;67.60;;;;;;4113518;28;20035;-51
2021/03/16 10:35:25;;;;;;;10.50;2.17;;;23.50;67.60;;;;;;4109664;28;20050;-51
2021/03/16 10:37:28;;;;;;;5.90;1.48;;;23.50;67.60;;;;;;4115838;28;20030;-49
2021/03/16 10:39:30;;;;;;;9.70;1.75;;;23.50;67.70;;;;;;4118796;28;20125;-51
2021/03/16 10:41:32;;;;;;;5.90;1.60;;;23.50;67.70;;;;;;4113032;28;20042;-53
2021/03/16 10:43:34;;;;;;;5.97;2.05;;;23.50;67.80;;;;;;4114988;28;20399;-55
2021/03/16 10:45:37;;;;;;;6.67;2.03;;;23.50;68.00;;;;;;4112375;28;20085;-55
2021/03/16 10:47:39;;;;;;;6.43;2.00;;;23.50;68.00;;;;;;4102360;28;20568;-52